createdAt,value
2022-11-05T00:02:48.475Z,83.66
2022-11-05T00:07:09.032Z,83.93
2022-11-05T00:11:15.241Z,84.32
2022-11-05T00:15:36.105Z,84.85
2022-11-05T00:19:34.794Z,85.29
2022-11-05T00:23:51.948Z,85.68
2022-11-05T00:27:53.323Z,85.94
2022-11-05T00:31:52.755Z,86.20
2022-11-05T00:35:51.277Z,86.52
2022-11-05T00:39:50.013Z,87.00
2022-11-05T00:44:07.276Z,87.15
2022-11-05T00:48:24.971Z,87.38
2022-11-05T00:52:53.826Z,87.58
2022-11-05T00:57:04.914Z,87.97
2022-11-05T01:00:44.154Z,88.15
2022-11-05T01:04:19.443Z,88.22
2022-11-05T01:07:57.027Z,88.17
2022-11-05T01:11:40.048Z,88.31
2022-11-05T01:15:13.245Z,88.46
2022-11-05T01:18:50.222Z,88.65
2022-11-05T01:22:30.514Z,88.75
2022-11-05T01:26:03.678Z,88.78
2022-11-05T01:29:42.083Z,89.05
2022-11-05T01:33:20.413Z,89.00
2022-11-05T01:36:58.405Z,89.20
2022-11-05T01:40:36.588Z,89.35
2022-11-05T01:44:51.017Z,89.37
2022-11-05T01:48:19.564Z,89.37
2022-11-05T01:51:39.110Z,89.44
2022-11-05T01:55:18.036Z,89.35
2022-11-05T01:59:03.073Z,89.45
2022-11-05T02:02:33.297Z,89.60
2022-11-05T02:06:12.981Z,89.56
2022-11-05T02:09:53.609Z,89.62
2022-11-05T02:13:25.467Z,89.64
2022-11-05T02:17:22.638Z,89.59
2022-11-05T02:21:07.360Z,89.68
2022-11-05T02:24:47.708Z,89.70
2022-11-05T02:29:22.856Z,89.82
2022-11-05T02:32:58.245Z,89.82
2022-11-05T02:36:34.574Z,90.00
2022-11-05T02:40:00.057Z,90.03
2022-11-05T02:44:29.104Z,90.24
2022-11-05T02:47:39.961Z,90.25
2022-11-05T02:51:43.070Z,90.37
2022-11-05T02:55:05.411Z,90.58
2022-11-05T02:58:40.534Z,90.68
2022-11-05T03:02:11.147Z,90.67
2022-11-05T03:06:22.367Z,90.72
2022-11-05T03:09:43.859Z,90.55
2022-11-05T03:13:22.428Z,90.24
2022-11-05T03:17:25.280Z,90.13
2022-11-05T03:20:35.863Z,90.04
2022-11-05T03:24:30.930Z,89.99
2022-11-05T03:27:52.147Z,89.95
2022-11-05T03:31:28.733Z,90.00
2022-11-05T03:35:11.862Z,90.08
2022-11-05T03:38:47.582Z,90.17
2022-11-05T03:42:23.496Z,90.17
2022-11-05T03:46:09.295Z,90.12
2022-11-05T03:49:44.055Z,89.91
2022-11-05T03:53:33.898Z,89.91
2022-11-05T03:56:56.892Z,89.90
2022-11-05T04:00:28.791Z,89.67
2022-11-05T04:04:14.868Z,89.68
2022-11-05T04:08:03.978Z,89.53
2022-11-05T04:11:39.145Z,89.49
2022-11-05T04:14:58.679Z,89.54
2022-11-05T04:18:40.090Z,89.53
2022-11-05T04:22:32.511Z,89.65
2022-11-05T04:26:49.295Z,89.64
2022-11-05T04:30:22.124Z,89.78
2022-11-05T04:33:59.803Z,89.82
2022-11-05T04:37:36.251Z,89.84
2022-11-05T04:41:20.336Z,89.91
2022-11-05T04:44:50.656Z,89.99
2022-11-05T04:48:59.773Z,90.00
2022-11-05T04:52:37.220Z,89.96
2022-11-05T04:56:19.306Z,90.00
2022-11-05T04:59:55.565Z,90.18
2022-11-05T05:03:30.978Z,90.19
2022-11-05T05:07:06.977Z,90.11
2022-11-05T05:10:47.278Z,90.06
2022-11-05T05:14:22.289Z,90.20
2022-11-05T05:18:00.903Z,90.12
2022-11-05T05:21:44.762Z,90.24
2022-11-05T05:25:17.257Z,90.09
2022-11-05T05:28:52.810Z,90.06
2022-11-05T05:33:07.859Z,90.05
2022-11-05T05:36:39.611Z,90.17
2022-11-05T05:40:49.445Z,90.13
2022-11-05T05:44:27.004Z,90.18
2022-11-05T05:48:05.766Z,90.25
2022-11-05T05:51:41.468Z,90.36
2022-11-05T05:55:20.381Z,90.46
2022-11-05T05:58:57.498Z,90.57
2022-11-05T06:02:37.663Z,90.75
2022-11-05T06:06:16.658Z,90.85
2022-11-05T06:09:50.315Z,91.02
2022-11-05T06:13:28.366Z,91.15
2022-11-05T06:17:06.592Z,91.26
2022-11-05T06:20:51.611Z,91.40
2022-11-05T06:24:22.325Z,91.49
2022-11-05T06:27:58.589Z,91.52
2022-11-05T06:31:36.677Z,91.51
2022-11-05T06:35:13.319Z,91.59
2022-11-05T06:38:50.998Z,91.68
2022-11-05T06:42:39.322Z,91.66
2022-11-05T06:46:05.995Z,91.71
2022-11-05T06:49:44.656Z,91.61
2022-11-05T06:53:23.833Z,91.70
2022-11-05T06:57:03.605Z,91.78
2022-11-05T07:00:38.610Z,91.76
2022-11-05T07:04:22.487Z,91.72
2022-11-05T07:07:54.673Z,91.67
2022-11-05T07:11:33.915Z,91.73
2022-11-05T07:15:10.552Z,91.76
2022-11-05T07:18:46.632Z,91.83
2022-11-05T07:22:24.717Z,91.82
2022-11-05T07:25:59.964Z,91.86
2022-11-05T07:30:15.794Z,91.83
2022-11-05T07:33:48.106Z,91.83
2022-11-05T07:37:26.298Z,91.79
2022-11-05T07:41:08.276Z,91.81
2022-11-05T07:44:41.750Z,91.75
2022-11-05T07:48:24.714Z,91.71
2022-11-05T07:51:59.154Z,91.72
2022-11-05T07:55:38.261Z,91.72
2022-11-05T07:59:15.302Z,91.67
2022-11-05T08:03:07.102Z,91.65
2022-11-05T08:06:33.958Z,91.56
2022-11-05T08:10:07.570Z,91.56
2022-11-05T08:13:46.143Z,91.55
2022-11-05T08:17:22.115Z,91.51
2022-11-05T08:20:58.203Z,91.43
2022-11-05T08:24:34.058Z,91.49
2022-11-05T08:28:16.983Z,91.44
2022-11-05T08:31:50.706Z,91.45
2022-11-05T08:35:29.206Z,91.44
2022-11-05T08:39:10.646Z,91.45
2022-11-05T08:42:45.752Z,91.43
2022-11-05T08:46:25.174Z,91.42
2022-11-05T08:49:59.841Z,91.44
2022-11-05T08:53:38.611Z,91.38
2022-11-05T08:57:19.947Z,91.36
2022-11-05T09:00:56.078Z,91.18
2022-11-05T09:04:29.594Z,91.19
2022-11-05T09:08:11.804Z,91.06
2022-11-05T09:12:10.738Z,91.01
2022-11-05T09:15:18.112Z,91.02
2022-11-05T09:18:53.558Z,91.01
2022-11-05T09:22:53.785Z,90.94
2022-11-05T09:26:53.312Z,90.74
2022-11-05T09:30:53.886Z,90.59
2022-11-05T09:34:30.710Z,90.43
2022-11-05T09:38:55.391Z,90.37
2022-11-05T09:42:14.345Z,90.28
2022-11-05T09:45:49.765Z,90.22
2022-11-05T09:49:54.535Z,90.07
2022-11-05T09:53:55.327Z,89.94
2022-11-05T09:58:02.099Z,89.89
2022-11-05T10:02:12.269Z,89.87
2022-11-05T10:06:18.817Z,89.94
2022-11-05T10:10:48.708Z,89.96
2022-11-05T10:15:10.774Z,90.10
2022-11-05T10:19:16.646Z,90.33
2022-11-05T10:23:21.670Z,90.51
2022-11-05T10:27:36.472Z,90.70
2022-11-05T10:31:39.033Z,90.90
2022-11-05T10:35:48.504Z,91.10
2022-11-05T10:39:49.260Z,91.23
2022-11-05T10:43:58.317Z,91.42
2022-11-05T10:48:07.161Z,91.54
2022-11-05T10:52:37.220Z,91.63
2022-11-05T10:56:40.030Z,91.69
2022-11-05T11:00:40.057Z,91.60
2022-11-05T11:04:40.438Z,91.46
2022-11-05T11:08:40.209Z,91.26
2022-11-05T11:12:44.308Z,90.93
2022-11-05T11:16:51.620Z,90.56
2022-11-05T11:20:50.670Z,90.25
2022-11-05T11:24:54.121Z,90.12
2022-11-05T11:29:05.964Z,90.04
2022-11-05T11:33:13.127Z,89.94
2022-11-05T11:36:47.635Z,89.80
2022-11-05T11:40:47.500Z,89.39
2022-11-05T11:44:49.258Z,89.14
2022-11-05T11:48:50.104Z,88.90
2022-11-05T11:52:49.649Z,88.74
2022-11-05T11:56:49.355Z,88.72
2022-11-05T12:01:02.552Z,88.49
2022-11-05T12:05:02.046Z,88.25
2022-11-05T12:09:29.476Z,88.06
2022-11-05T12:14:25.922Z,87.88
2022-11-05T12:18:57.900Z,87.80
2022-11-05T12:23:54.243Z,87.65
2022-11-05T12:27:06.098Z,87.67
2022-11-05T12:31:36.336Z,87.45
2022-11-05T12:36:03.975Z,87.23
2022-11-05T12:40:42.234Z,87.26
2022-11-05T12:44:52.051Z,87.33
2022-11-05T12:48:57.970Z,87.36
2022-11-05T12:53:14.374Z,87.40
2022-11-05T12:57:17.430Z,87.27
2022-11-05T13:01:27.474Z,87.24
2022-11-05T13:06:08.859Z,87.07
2022-11-05T13:10:27.485Z,87.04
2022-11-05T13:14:29.834Z,86.90
2022-11-05T13:19:00.523Z,86.73
2022-11-05T13:23:38.106Z,86.72
2022-11-05T13:28:04.308Z,86.62
2022-11-05T13:32:27.076Z,86.60
2022-11-05T13:36:51.840Z,86.64
2022-11-05T13:41:23.805Z,86.60
2022-11-05T13:45:30.525Z,86.55
2022-11-05T13:50:11.268Z,86.54
2022-11-05T13:54:14.726Z,86.56
2022-11-05T13:58:47.385Z,86.63
2022-11-05T14:02:53.780Z,86.62
2022-11-05T14:06:55.389Z,86.52
2022-11-05T14:11:33.799Z,86.40
2022-11-05T14:15:33.900Z,86.10
2022-11-05T14:20:10.037Z,85.94
2022-11-05T14:24:23.358Z,85.98
2022-11-05T14:28:35.680Z,85.97
2022-11-05T14:32:46.221Z,86.02
2022-11-05T14:37:03.727Z,86.00
2022-11-05T14:41:04.151Z,86.04
2022-11-05T14:45:27.347Z,86.06
2022-11-05T14:49:31.839Z,85.89
2022-11-05T14:53:34.399Z,85.66
2022-11-05T14:57:55.491Z,85.61
2022-11-05T15:02:21.016Z,85.55
2022-11-05T15:05:39.807Z,85.52
2022-11-05T15:09:45.450Z,85.60
2022-11-05T15:14:01.687Z,85.73
2022-11-05T15:18:06.268Z,85.78
2022-11-05T15:22:12.964Z,85.82
2022-11-05T15:26:38.482Z,85.88
2022-11-05T15:30:38.585Z,85.93
2022-11-05T15:34:38.985Z,85.99
2022-11-05T15:38:56.671Z,86.05
2022-11-05T15:43:20.475Z,86.18
2022-11-05T15:47:28.227Z,86.23
2022-11-05T15:51:27.980Z,86.41
2022-11-05T15:55:55.453Z,86.51
2022-11-05T15:59:32.857Z,86.62
2022-11-05T16:03:35.996Z,86.64
2022-11-05T16:07:36.229Z,86.67
2022-11-05T16:11:35.939Z,86.67
2022-11-05T16:15:36.502Z,86.73
2022-11-05T16:19:40.910Z,86.79
2022-11-05T16:23:53.484Z,86.92
2022-11-05T16:27:54.374Z,87.01
2022-11-05T16:32:02.460Z,87.11
2022-11-05T16:35:46.312Z,87.21
2022-11-05T16:39:46.440Z,87.35
2022-11-05T16:43:55.992Z,87.51
2022-11-05T16:47:56.120Z,87.63
2022-11-05T16:51:55.825Z,87.68
2022-11-05T16:56:03.096Z,87.74
2022-11-05T16:59:34.182Z,87.77
2022-11-05T17:03:33.772Z,87.75
2022-11-05T17:07:53.254Z,87.83
2022-11-05T17:11:21.750Z,87.87
2022-11-05T17:15:39.584Z,87.92
2022-11-05T17:19:42.775Z,87.84
2022-11-05T17:23:42.737Z,87.78
2022-11-05T17:27:42.111Z,87.70
2022-11-05T17:31:42.109Z,87.65
2022-11-05T17:35:42.628Z,87.61
2022-11-05T17:39:43.466Z,87.54
2022-11-05T17:43:45.569Z,87.51
2022-11-05T17:47:21.774Z,87.60
2022-11-05T18:02:53.078Z,88.89
2022-11-05T18:06:01.837Z,88.82
2022-11-05T18:10:00.866Z,88.64
2022-11-05T18:14:00.125Z,88.41
2022-11-05T18:24:35.690Z,88.32
2022-11-05T18:28:39.724Z,88.40
2022-11-05T18:32:44.216Z,88.42
2022-11-05T18:36:21.859Z,88.45
2022-11-05T18:40:20.976Z,88.47
2022-11-05T18:44:38.897Z,88.46
2022-11-05T18:48:38.395Z,88.50
2022-11-05T18:52:38.166Z,88.49
2022-11-05T18:56:37.573Z,88.51
2022-11-05T19:00:39.809Z,88.60
2022-11-05T19:04:39.882Z,88.64
2022-11-05T19:08:39.736Z,88.68
2022-11-05T19:12:39.079Z,88.66
2022-11-05T19:16:38.817Z,88.62
2022-11-05T19:20:39.021Z,88.62
2022-11-05T19:24:52.504Z,88.60
2022-11-05T19:28:52.964Z,88.61
2022-11-05T19:32:52.763Z,88.59
2022-11-05T19:36:52.837Z,88.60
2022-11-05T19:40:52.943Z,88.61
2022-11-05T19:44:51.942Z,88.63
2022-11-05T19:48:52.988Z,88.63
2022-11-05T19:52:54.500Z,88.66
2022-11-05T19:56:53.416Z,88.55
2022-11-05T20:00:55.804Z,88.49
2022-11-05T20:04:54.764Z,88.48
2022-11-05T20:13:49.259Z,88.55
2022-11-05T20:17:08.179Z,88.64
2022-11-05T20:21:09.326Z,88.69
2022-11-05T20:25:09.391Z,88.75
2022-11-05T20:29:23.497Z,88.79
2022-11-05T20:33:22.282Z,88.85
2022-11-05T20:37:21.037Z,88.85
2022-11-05T20:41:20.135Z,88.83
2022-11-05T20:45:20.897Z,88.84
2022-11-05T20:48:56.925Z,88.77
2022-11-05T20:53:10.108Z,88.77
2022-11-05T20:57:08.773Z,88.76
2022-11-05T21:01:08.350Z,88.75
2022-11-05T21:05:08.417Z,88.89
2022-11-05T21:09:07.246Z,88.93
2022-11-05T21:13:05.732Z,88.90
2022-11-05T21:17:04.776Z,88.85
2022-11-05T21:21:05.354Z,88.81
2022-11-05T21:25:04.416Z,88.71
2022-11-05T21:29:17.223Z,88.62
2022-11-05T21:33:16.932Z,88.54
2022-11-05T21:37:15.993Z,88.53
2022-11-05T21:41:14.743Z,88.57
2022-11-05T21:45:14.263Z,88.42
2022-11-05T21:49:14.751Z,88.32
2022-11-05T21:53:33.412Z,88.20
2022-11-05T21:57:51.495Z,88.15
2022-11-05T22:01:50.647Z,88.16
2022-11-05T22:05:49.557Z,88.02
2022-11-05T22:09:48.606Z,88.07
2022-11-05T22:13:47.510Z,88.01
2022-11-05T22:17:47.463Z,87.99
2022-11-05T22:21:46.876Z,87.92
2022-11-05T22:25:45.433Z,87.86
2022-11-05T22:29:46.275Z,87.85
2022-11-05T22:33:45.390Z,87.85
2022-11-05T22:37:44.622Z,87.89
2022-11-05T22:41:44.038Z,87.81
2022-11-05T22:45:44.139Z,87.63
2022-11-05T22:49:43.477Z,87.45
2022-11-05T22:53:43.063Z,87.38
2022-11-05T22:57:42.651Z,87.36
2022-11-05T23:01:43.172Z,87.33
2022-11-05T23:05:42.068Z,87.32
2022-11-05T23:09:59.691Z,87.37
2022-11-05T23:13:58.831Z,87.29
2022-11-05T23:18:16.567Z,87.11
2022-11-05T23:22:34.579Z,87.16
2022-11-05T23:26:56.476Z,87.04
2022-11-05T23:31:14.395Z,87.14
2022-11-05T23:35:13.691Z,87.12
2022-11-05T23:39:12.593Z,87.25
2022-11-05T23:43:30.279Z,87.37
2022-11-05T23:47:48.107Z,87.25
2022-11-05T23:51:47.281Z,87.26
2022-11-05T23:55:45.918Z,87.20
2022-11-05T23:59:44.646Z,87.12
